sensor_id;sensor_type;location;lat;lon;timestamp;P1;durP1;ratioP1;P2;durP2;ratioP2
61915;SDS011;47868;51.326;6.550;2022-08-25T00:01:12;8.68;;;3.20;;
61915;SDS011;47868;51.326;6.550;2022-08-25T00:03:42;5.85;;;2.70;;
61915;SDS011;47868;51.326;6.550;2022-08-25T00:06:09;3.53;;;2.95;;
61915;SDS011;47868;51.326;6.550;2022-08-25T00:08:36;3.85;;;2.97;;
61915;SDS011;47868;51.326;6.550;2022-08-25T00:11:06;6.70;;;3.20;;
61915;SDS011;47868;51.326;6.550;2022-08-25T00:13:36;10.57;;;3.33;;
61915;SDS011;47868;51.326;6.550;2022-08-25T00:16:07;4.45;;;3.15;;
61915;SDS011;47868;51.326;6.550;2022-08-25T00:18:34;4.45;;;2.83;;
61915;SDS011;47868;51.326;6.550;2022-08-25T00:21:01;5.25;;;3.10;;
61915;SDS011;47868;51.326;6.550;2022-08-25T00:23:27;3.70;;;2.70;;
61915;SDS011;47868;51.326;6.550;2022-08-25T00:25:53;6.32;;;2.90;;
61915;SDS011;47868;51.326;6.550;2022-08-25T00:28:19;3.28;;;2.70;;
61915;SDS011;47868;51.326;6.550;2022-08-25T00:30:45;3.58;;;2.63;;
61915;SDS011;47868;51.326;6.550;2022-08-25T00:33:11;4.63;;;3.03;;
61915;SDS011;47868;51.326;6.550;2022-08-25T00:35:39;3.45;;;2.67;;
61915;SDS011;47868;51.326;6.550;2022-08-25T00:38:06;6.78;;;2.88;;
61915;SDS011;47868;51.326;6.550;2022-08-25T00:40:32;4.53;;;2.78;;
61915;SDS011;47868;51.326;6.550;2022-08-25T00:42:58;5.50;;;2.80;;
61915;SDS011;47868;51.326;6.550;2022-08-25T00:45:24;5.60;;;2.80;;
61915;SDS011;47868;51.326;6.550;2022-08-25T00:47:50;4.88;;;2.80;;
61915;SDS011;47868;51.326;6.550;2022-08-25T00:50:16;4.70;;;3.00;;
61915;SDS011;47868;51.326;6.550;2022-08-25T00:52:44;4.15;;;2.83;;
61915;SDS011;47868;51.326;6.550;2022-08-25T00:55:15;3.75;;;3.08;;
61915;SDS011;47868;51.326;6.550;2022-08-25T00:57:47;6.47;;;3.25;;
61915;SDS011;47868;51.326;6.550;2022-08-25T01:00:34;6.55;;;3.13;;
61915;SDS011;47868;51.326;6.550;2022-08-25T01:03:04;3.75;;;2.72;;
61915;SDS011;47868;51.326;6.550;2022-08-25T01:05:30;7.18;;;3.35;;
61915;SDS011;47868;51.326;6.550;2022-08-25T01:07:57;6.22;;;3.45;;
61915;SDS011;47868;51.326;6.550;2022-08-25T01:10:26;5.95;;;3.50;;
61915;SDS011;47868;51.326;6.550;2022-08-25T01:12:58;8.48;;;3.35;;
61915;SDS011;47868;51.326;6.550;2022-08-25T01:15:30;6.20;;;3.22;;
61915;SDS011;47868;51.326;6.550;2022-08-25T01:17:57;6.20;;;3.22;;
61915;SDS011;47868;51.326;6.550;2022-08-25T01:20:24;3.67;;;3.17;;
61915;SDS011;47868;51.326;6.550;2022-08-25T01:22:52;5.18;;;3.55;;
61915;SDS011;47868;51.326;6.550;2022-08-25T01:28:08;4.07;;;3.13;;
61915;SDS011;47868;51.326;6.550;2022-08-25T01:30:34;7.03;;;3.70;;
61915;SDS011;47868;51.326;6.550;2022-08-25T01:33:04;4.63;;;3.13;;
61915;SDS011;47868;51.326;6.550;2022-08-25T01:35:31;4.05;;;3.28;;
61915;SDS011;47868;51.326;6.550;2022-08-25T01:37:59;4.38;;;3.13;;
61915;SDS011;47868;51.326;6.550;2022-08-25T01:40:25;6.15;;;3.45;;
61915;SDS011;47868;51.326;6.550;2022-08-25T01:42:52;8.10;;;3.70;;
61915;SDS011;47868;51.326;6.550;2022-08-25T01:45:32;6.13;;;3.58;;
61915;SDS011;47868;51.326;6.550;2022-08-25T01:47:58;5.93;;;3.88;;
61915;SDS011;47868;51.326;6.550;2022-08-25T01:50:24;5.82;;;3.33;;
61915;SDS011;47868;51.326;6.550;2022-08-25T01:55:16;6.55;;;3.72;;
61915;SDS011;47868;51.326;6.550;2022-08-25T01:57:41;9.50;;;3.92;;
61915;SDS011;47868;51.326;6.550;2022-08-25T02:00:08;4.55;;;3.80;;
61915;SDS011;47868;51.326;6.550;2022-08-25T02:02:37;6.80;;;3.78;;
61915;SDS011;47868;51.326;6.550;2022-08-25T02:05:03;5.25;;;3.58;;
61915;SDS011;47868;51.326;6.550;2022-08-25T02:07:30;7.05;;;4.03;;
61915;SDS011;47868;51.326;6.550;2022-08-25T02:09:56;8.93;;;4.30;;
61915;SDS011;47868;51.326;6.550;2022-08-25T02:12:22;6.57;;;4.05;;
61915;SDS011;47868;51.326;6.550;2022-08-25T02:14:47;4.53;;;3.88;;
61915;SDS011;47868;51.326;6.550;2022-08-25T02:17:13;8.15;;;3.85;;
61915;SDS011;47868;51.326;6.550;2022-08-25T02:19:39;5.82;;;3.95;;
61915;SDS011;47868;51.326;6.550;2022-08-25T02:22:04;5.18;;;3.45;;
61915;SDS011;47868;51.326;6.550;2022-08-25T02:24:30;8.95;;;3.60;;
61915;SDS011;47868;51.326;6.550;2022-08-25T02:26:56;6.60;;;3.60;;
61915;SDS011;47868;51.326;6.550;2022-08-25T02:29:22;5.75;;;3.20;;
61915;SDS011;47868;51.326;6.550;2022-08-25T02:31:48;10.63;;;3.47;;
61915;SDS011;47868;51.326;6.550;2022-08-25T02:34:14;6.80;;;3.53;;
61915;SDS011;47868;51.326;6.550;2022-08-25T02:36:40;5.80;;;3.45;;
61915;SDS011;47868;51.326;6.550;2022-08-25T02:39:08;8.35;;;3.50;;
61915;SDS011;47868;51.326;6.550;2022-08-25T02:41:34;5.20;;;3.25;;
61915;SDS011;47868;51.326;6.550;2022-08-25T02:44:01;9.88;;;3.47;;
61915;SDS011;47868;51.326;6.550;2022-08-25T02:46:28;6.97;;;3.58;;
61915;SDS011;47868;51.326;6.550;2022-08-25T02:48:55;5.90;;;3.33;;
61915;SDS011;47868;51.326;6.550;2022-08-25T02:51:21;7.18;;;3.67;;
61915;SDS011;47868;51.326;6.550;2022-08-25T02:53:48;12.15;;;3.58;;
61915;SDS011;47868;51.326;6.550;2022-08-25T02:56:14;3.55;;;3.15;;
61915;SDS011;47868;51.326;6.550;2022-08-25T02:58:41;3.95;;;3.15;;
61915;SDS011;47868;51.326;6.550;2022-08-25T03:01:07;10.55;;;2.90;;
61915;SDS011;47868;51.326;6.550;2022-08-25T03:03:35;4.53;;;3.20;;
61915;SDS011;47868;51.326;6.550;2022-08-25T03:06:04;5.72;;;3.03;;
61915;SDS011;47868;51.326;6.550;2022-08-25T03:08:35;4.75;;;3.08;;
61915;SDS011;47868;51.326;6.550;2022-08-25T03:11:01;4.20;;;2.72;;
61915;SDS011;47868;51.326;6.550;2022-08-25T03:13:27;5.90;;;3.33;;
61915;SDS011;47868;51.326;6.550;2022-08-25T03:15:53;3.63;;;2.72;;
61915;SDS011;47868;51.326;6.550;2022-08-25T03:18:18;5.05;;;3.15;;
61915;SDS011;47868;51.326;6.550;2022-08-25T03:20:44;7.53;;;3.15;;
61915;SDS011;47868;51.326;6.550;2022-08-25T03:23:10;7.15;;;3.38;;
61915;SDS011;47868;51.326;6.550;2022-08-25T03:25:37;4.20;;;3.10;;
61915;SDS011;47868;51.326;6.550;2022-08-25T03:28:23;5.25;;;3.08;;
61915;SDS011;47868;51.326;6.550;2022-08-25T03:30:49;4.07;;;2.92;;
61915;SDS011;47868;51.326;6.550;2022-08-25T03:33:14;3.95;;;3.40;;
61915;SDS011;47868;51.326;6.550;2022-08-25T03:35:40;9.48;;;2.97;;
61915;SDS011;47868;51.326;6.550;2022-08-25T03:38:06;3.53;;;2.63;;
61915;SDS011;47868;51.326;6.550;2022-08-25T03:40:31;8.55;;;2.92;;
61915;SDS011;47868;51.326;6.550;2022-08-25T03:42:57;4.15;;;2.80;;
61915;SDS011;47868;51.326;6.550;2022-08-25T03:45:23;6.93;;;3.00;;
61915;SDS011;47868;51.326;6.550;2022-08-25T03:47:50;8.82;;;3.30;;
61915;SDS011;47868;51.326;6.550;2022-08-25T03:50:17;5.03;;;2.88;;
61915;SDS011;47868;51.326;6.550;2022-08-25T03:52:44;2.97;;;2.72;;
61915;SDS011;47868;51.326;6.550;2022-08-25T03:55:18;3.55;;;3.03;;
61915;SDS011;47868;51.326;6.550;2022-08-25T03:57:46;3.60;;;2.72;;
61915;SDS011;47868;51.326;6.550;2022-08-25T04:00:12;3.50;;;3.17;;
61915;SDS011;47868;51.326;6.550;2022-08-25T04:02:39;5.47;;;3.10;;
61915;SDS011;47868;51.326;6.550;2022-08-25T04:05:05;7.82;;;3.00;;
61915;SDS011;47868;51.326;6.550;2022-08-25T04:07:31;7.30;;;2.95;;
61915;SDS011;47868;51.326;6.550;2022-08-25T04:09:56;7.95;;;3.00;;
61915;SDS011;47868;51.326;6.550;2022-08-25T04:12:22;6.78;;;3.15;;
61915;SDS011;47868;51.326;6.550;2022-08-25T04:14:48;6.82;;;3.30;;
61915;SDS011;47868;51.326;6.550;2022-08-25T04:17:14;8.20;;;3.50;;
61915;SDS011;47868;51.326;6.550;2022-08-25T04:19:39;6.07;;;3.55;;
61915;SDS011;47868;51.326;6.550;2022-08-25T04:22:05;6.25;;;3.50;;
61915;SDS011;47868;51.326;6.550;2022-08-25T04:24:31;6.38;;;3.72;;
61915;SDS011;47868;51.326;6.550;2022-08-25T04:26:57;4.63;;;3.67;;
61915;SDS011;47868;51.326;6.550;2022-08-25T04:29:23;3.95;;;3.35;;
61915;SDS011;47868;51.326;6.550;2022-08-25T04:31:50;4.80;;;3.42;;
61915;SDS011;47868;51.326;6.550;2022-08-25T04:34:17;6.93;;;3.60;;
61915;SDS011;47868;51.326;6.550;2022-08-25T04:36:44;7.03;;;3.33;;
61915;SDS011;47868;51.326;6.550;2022-08-25T04:39:10;5.78;;;3.42;;
61915;SDS011;47868;51.326;6.550;2022-08-25T04:41:36;5.30;;;3.60;;
61915;SDS011;47868;51.326;6.550;2022-08-25T04:44:02;6.40;;;3.55;;
61915;SDS011;47868;51.326;6.550;2022-08-25T04:46:29;10.10;;;3.85;;
61915;SDS011;47868;51.326;6.550;2022-08-25T04:48:57;4.93;;;2.97;;
61915;SDS011;47868;51.326;6.550;2022-08-25T04:51:25;8.85;;;3.85;;
61915;SDS011;47868;51.326;6.550;2022-08-25T04:53:53;7.43;;;3.85;;
61915;SDS011;47868;51.326;6.550;2022-08-25T04:56:22;5.60;;;3.60;;
61915;SDS011;47868;51.326;6.550;2022-08-25T04:58:49;11.48;;;3.53;;
61915;SDS011;47868;51.326;6.550;2022-08-25T05:01:16;5.03;;;3.47;;
61915;SDS011;47868;51.326;6.550;2022-08-25T05:03:45;8.88;;;3.53;;
61915;SDS011;47868;51.326;6.550;2022-08-25T05:06:12;9.48;;;3.40;;
61915;SDS011;47868;51.326;6.550;2022-08-25T05:08:38;8.10;;;3.70;;
61915;SDS011;47868;51.326;6.550;2022-08-25T05:11:08;6.60;;;3.50;;
61915;SDS011;47868;51.326;6.550;2022-08-25T05:13:37;5.90;;;3.45;;
61915;SDS011;47868;51.326;6.550;2022-08-25T05:16:03;7.53;;;3.60;;
61915;SDS011;47868;51.326;6.550;2022-08-25T05:18:29;11.43;;;4.78;;
61915;SDS011;47868;51.326;6.550;2022-08-25T05:21:00;9.07;;;4.25;;
61915;SDS011;47868;51.326;6.550;2022-08-25T05:23:27;12.68;;;4.28;;
61915;SDS011;47868;51.326;6.550;2022-08-25T05:25:53;7.57;;;4.47;;
61915;SDS011;47868;51.326;6.550;2022-08-25T05:28:19;11.05;;;3.65;;
61915;SDS011;47868;51.326;6.550;2022-08-25T05:30:45;9.68;;;4.10;;
61915;SDS011;47868;51.326;6.550;2022-08-25T05:33:13;10.07;;;4.25;;
61915;SDS011;47868;51.326;6.550;2022-08-25T05:35:40;9.27;;;3.72;;
61915;SDS011;47868;51.326;6.550;2022-08-25T05:38:06;8.35;;;4.18;;
61915;SDS011;47868;51.326;6.550;2022-08-25T05:40:34;7.38;;;3.63;;
61915;SDS011;47868;51.326;6.550;2022-08-25T05:43:00;6.03;;;3.90;;
61915;SDS011;47868;51.326;6.550;2022-08-25T05:45:25;6.03;;;4.03;;
61915;SDS011;47868;51.326;6.550;2022-08-25T05:47:51;7.72;;;3.90;;
61915;SDS011;47868;51.326;6.550;2022-08-25T05:50:17;8.52;;;3.70;;
61915;SDS011;47868;51.326;6.550;2022-08-25T05:52:43;6.00;;;3.95;;
61915;SDS011;47868;51.326;6.550;2022-08-25T05:55:09;5.30;;;4.15;;
61915;SDS011;47868;51.326;6.550;2022-08-25T05:57:35;3.75;;;3.22;;
61915;SDS011;47868;51.326;6.550;2022-08-25T06:00:02;7.35;;;3.75;;
61915;SDS011;47868;51.326;6.550;2022-08-25T06:02:29;7.78;;;3.92;;
61915;SDS011;47868;51.326;6.550;2022-08-25T06:05:14;9.38;;;3.70;;
61915;SDS011;47868;51.326;6.550;2022-08-25T06:07:41;5.30;;;3.83;;
61915;SDS011;47868;51.326;6.550;2022-08-25T06:10:08;8.65;;;3.85;;
61915;SDS011;47868;51.326;6.550;2022-08-25T06:12:35;4.60;;;3.60;;
61915;SDS011;47868;51.326;6.550;2022-08-25T06:15:02;4.95;;;3.83;;
61915;SDS011;47868;51.326;6.550;2022-08-25T06:17:29;4.47;;;3.65;;
61915;SDS011;47868;51.326;6.550;2022-08-25T06:19:55;5.95;;;3.28;;
61915;SDS011;47868;51.326;6.550;2022-08-25T06:22:21;8.40;;;3.88;;
61915;SDS011;47868;51.326;6.550;2022-08-25T06:24:47;6.43;;;3.75;;
61915;SDS011;47868;51.326;6.550;2022-08-25T06:27:13;7.68;;;3.60;;
61915;SDS011;47868;51.326;6.550;2022-08-25T06:29:38;6.68;;;3.65;;
61915;SDS011;47868;51.326;6.550;2022-08-25T06:32:04;5.97;;;3.58;;
61915;SDS011;47868;51.326;6.550;2022-08-25T06:34:30;7.47;;;3.83;;
61915;SDS011;47868;51.326;6.550;2022-08-25T06:36:56;6.13;;;3.88;;
61915;SDS011;47868;51.326;6.550;2022-08-25T06:39:23;8.07;;;4.05;;
61915;SDS011;47868;51.326;6.550;2022-08-25T06:41:49;12.60;;;3.88;;
61915;SDS011;47868;51.326;6.550;2022-08-25T06:44:16;5.63;;;3.90;;
61915;SDS011;47868;51.326;6.550;2022-08-25T06:46:42;4.82;;;3.78;;
61915;SDS011;47868;51.326;6.550;2022-08-25T06:49:07;9.30;;;3.90;;
61915;SDS011;47868;51.326;6.550;2022-08-25T06:51:33;7.85;;;4.13;;
61915;SDS011;47868;51.326;6.550;2022-08-25T06:54:00;7.47;;;4.13;;
61915;SDS011;47868;51.326;6.550;2022-08-25T06:56:25;6.18;;;4.00;;
61915;SDS011;47868;51.326;6.550;2022-08-25T06:58:51;8.23;;;4.13;;
61915;SDS011;47868;51.326;6.550;2022-08-25T07:01:18;4.10;;;3.70;;
61915;SDS011;47868;51.326;6.550;2022-08-25T07:03:48;5.13;;;3.90;;
61915;SDS011;47868;51.326;6.550;2022-08-25T07:06:15;9.02;;;4.13;;
61915;SDS011;47868;51.326;6.550;2022-08-25T07:08:42;6.20;;;4.03;;
61915;SDS011;47868;51.326;6.550;2022-08-25T07:11:09;5.40;;;4.30;;
61915;SDS011;47868;51.326;6.550;2022-08-25T07:13:36;4.68;;;4.03;;
61915;SDS011;47868;51.326;6.550;2022-08-25T07:16:02;4.70;;;4.03;;
61915;SDS011;47868;51.326;6.550;2022-08-25T07:18:32;8.18;;;4.10;;
61915;SDS011;47868;51.326;6.550;2022-08-25T07:20:58;12.40;;;4.60;;
61915;SDS011;47868;51.326;6.550;2022-08-25T07:23:25;8.25;;;4.65;;
61915;SDS011;47868;51.326;6.550;2022-08-25T07:25:52;6.13;;;4.03;;
61915;SDS011;47868;51.326;6.550;2022-08-25T07:28:19;8.57;;;4.15;;
61915;SDS011;47868;51.326;6.550;2022-08-25T07:30:46;13.23;;;4.38;;
61915;SDS011;47868;51.326;6.550;2022-08-25T07:33:13;6.95;;;4.05;;
61915;SDS011;47868;51.326;6.550;2022-08-25T07:35:38;7.57;;;3.95;;
61915;SDS011;47868;51.326;6.550;2022-08-25T07:38:05;7.25;;;3.72;;
61915;SDS011;47868;51.326;6.550;2022-08-25T07:40:33;8.10;;;3.90;;
61915;SDS011;47868;51.326;6.550;2022-08-25T07:43:03;7.93;;;3.90;;
61915;SDS011;47868;51.326;6.550;2022-08-25T07:45:32;6.88;;;3.90;;
61915;SDS011;47868;51.326;6.550;2022-08-25T07:48:00;8.05;;;3.60;;
61915;SDS011;47868;51.326;6.550;2022-08-25T07:50:35;5.28;;;4.10;;
61915;SDS011;47868;51.326;6.550;2022-08-25T07:53:09;6.15;;;3.67;;
61915;SDS011;47868;51.326;6.550;2022-08-25T07:55:35;5.70;;;3.60;;
61915;SDS011;47868;51.326;6.550;2022-08-25T07:58:03;4.43;;;3.80;;
61915;SDS011;47868;51.326;6.550;2022-08-25T08:00:30;5.45;;;3.97;;
61915;SDS011;47868;51.326;6.550;2022-08-25T08:02:58;5.18;;;3.90;;
61915;SDS011;47868;51.326;6.550;2022-08-25T08:05:27;4.00;;;3.60;;
61915;SDS011;47868;51.326;6.550;2022-08-25T08:07:53;6.85;;;3.65;;
61915;SDS011;47868;51.326;6.550;2022-08-25T08:10:20;13.20;;;3.80;;
61915;SDS011;47868;51.326;6.550;2022-08-25T08:12:47;7.47;;;3.70;;
61915;SDS011;47868;51.326;6.550;2022-08-25T08:15:13;6.35;;;3.85;;
61915;SDS011;47868;51.326;6.550;2022-08-25T08:17:39;4.50;;;3.17;;
61915;SDS011;47868;51.326;6.550;2022-08-25T08:20:06;8.35;;;3.40;;
61915;SDS011;47868;51.326;6.550;2022-08-25T08:22:34;3.83;;;3.40;;
61915;SDS011;47868;51.326;6.550;2022-08-25T08:25:00;4.53;;;3.15;;
61915;SDS011;47868;51.326;6.550;2022-08-25T08:27:26;5.32;;;3.85;;
61915;SDS011;47868;51.326;6.550;2022-08-25T08:29:52;5.82;;;3.58;;
61915;SDS011;47868;51.326;6.550;2022-08-25T08:32:18;8.55;;;3.67;;
61915;SDS011;47868;51.326;6.550;2022-08-25T08:34:44;6.00;;;3.22;;
61915;SDS011;47868;51.326;6.550;2022-08-25T08:37:11;7.15;;;3.35;;
61915;SDS011;47868;51.326;6.550;2022-08-25T08:39:37;3.65;;;3.08;;
61915;SDS011;47868;51.326;6.550;2022-08-25T08:58:09;6.53;;;3.58;;
61915;SDS011;47868;51.326;6.550;2022-08-25T09:00:42;5.85;;;3.63;;
61915;SDS011;47868;51.326;6.550;2022-08-25T09:06:01;5.47;;;3.20;;
61915;SDS011;47868;51.326;6.550;2022-08-25T09:08:31;3.55;;;3.20;;
61915;SDS011;47868;51.326;6.550;2022-08-25T09:11:09;8.02;;;3.95;;
61915;SDS011;47868;51.326;6.550;2022-08-25T09:13:44;6.93;;;3.50;;
61915;SDS011;47868;51.326;6.550;2022-08-25T09:20:23;9.93;;;4.18;;
61915;SDS011;47868;51.326;6.550;2022-08-25T09:28:02;8.45;;;3.75;;
61915;SDS011;47868;51.326;6.550;2022-08-25T09:33:41;5.85;;;3.20;;
61915;SDS011;47868;51.326;6.550;2022-08-25T09:36:07;8.88;;;3.88;;
61915;SDS011;47868;51.326;6.550;2022-08-25T09:38:32;3.53;;;3.22;;
61915;SDS011;47868;51.326;6.550;2022-08-25T09:40:59;6.50;;;3.90;;
61915;SDS011;47868;51.326;6.550;2022-08-25T09:48:46;5.97;;;3.40;;
61915;SDS011;47868;51.326;6.550;2022-08-25T09:53:55;7.38;;;3.80;;
61915;SDS011;47868;51.326;6.550;2022-08-25T09:56:28;4.07;;;3.22;;
61915;SDS011;47868;51.326;6.550;2022-08-25T10:01:49;6.28;;;3.15;;
61915;SDS011;47868;51.326;6.550;2022-08-25T10:07:04;4.57;;;3.85;;
61915;SDS011;47868;51.326;6.550;2022-08-25T10:09:50;4.28;;;3.75;;
61915;SDS011;47868;51.326;6.550;2022-08-25T10:12:22;5.32;;;3.65;;
61915;SDS011;47868;51.326;6.550;2022-08-25T10:15:25;6.82;;;3.33;;
61915;SDS011;47868;51.326;6.550;2022-08-25T10:20:41;5.65;;;3.53;;
61915;SDS011;47868;51.326;6.550;2022-08-25T10:23:10;4.13;;;3.72;;
61915;SDS011;47868;51.326;6.550;2022-08-25T10:25:40;4.60;;;3.50;;
61915;SDS011;47868;51.326;6.550;2022-08-25T10:33:38;3.75;;;3.38;;
61915;SDS011;47868;51.326;6.550;2022-08-25T10:36:21;4.68;;;2.95;;
61915;SDS011;47868;51.326;6.550;2022-08-25T10:38:57;6.55;;;3.22;;
61915;SDS011;47868;51.326;6.550;2022-08-25T10:41:36;4.57;;;3.60;;
61915;SDS011;47868;51.326;6.550;2022-08-25T10:44:29;6.72;;;3.08;;
61915;SDS011;47868;51.326;6.550;2022-08-25T10:50:13;4.53;;;3.10;;
61915;SDS011;47868;51.326;6.550;2022-08-25T11:03:49;7.05;;;3.05;;
61915;SDS011;47868;51.326;6.550;2022-08-25T11:06:34;5.95;;;3.00;;
61915;SDS011;47868;51.326;6.550;2022-08-25T11:09:06;6.40;;;3.10;;
61915;SDS011;47868;51.326;6.550;2022-08-25T11:14:08;4.78;;;3.20;;
61915;SDS011;47868;51.326;6.550;2022-08-25T11:22:06;8.13;;;2.90;;
61915;SDS011;47868;51.326;6.550;2022-08-25T11:24:41;4.68;;;2.60;;
61915;SDS011;47868;51.326;6.550;2022-08-25T11:30:39;8.20;;;2.85;;
61915;SDS011;47868;51.326;6.550;2022-08-25T11:33:05;3.22;;;2.88;;
61915;SDS011;47868;51.326;6.550;2022-08-25T11:35:36;8.52;;;3.05;;
61915;SDS011;47868;51.326;6.550;2022-08-25T11:49:51;6.72;;;2.70;;
61915;SDS011;47868;51.326;6.550;2022-08-25T11:55:11;5.43;;;2.40;;
61915;SDS011;47868;51.326;6.550;2022-08-25T11:58:20;2.67;;;2.47;;
61915;SDS011;47868;51.326;6.550;2022-08-25T12:00:52;6.18;;;2.42;;
61915;SDS011;47868;51.326;6.550;2022-08-25T12:08:46;5.57;;;1.98;;
61915;SDS011;47868;51.326;6.550;2022-08-25T12:11:41;2.67;;;2.25;;
61915;SDS011;47868;51.326;6.550;2022-08-25T12:27:11;8.13;;;2.10;;
61915;SDS011;47868;51.326;6.550;2022-08-25T12:30:15;2.00;;;1.90;;
61915;SDS011;47868;51.326;6.550;2022-08-25T12:33:09;5.70;;;2.10;;
61915;SDS011;47868;51.326;6.550;2022-08-25T12:38:27;2.30;;;2.03;;
61915;SDS011;47868;51.326;6.550;2022-08-25T12:41:02;3.83;;;1.80;;
61915;SDS011;47868;51.326;6.550;2022-08-25T12:43:34;1.80;;;1.70;;
61915;SDS011;47868;51.326;6.550;2022-08-25T12:48:56;1.55;;;1.45;;
61915;SDS011;47868;51.326;6.550;2022-08-25T12:52:14;2.08;;;1.17;;
61915;SDS011;47868;51.326;6.550;2022-08-25T12:56:46;5.07;;;1.60;;
61915;SDS011;47868;51.326;6.550;2022-08-25T13:18:10;3.42;;;1.45;;
61915;SDS011;47868;51.326;6.550;2022-08-25T13:21:04;5.13;;;1.30;;
61915;SDS011;47868;51.326;6.550;2022-08-25T13:23:35;1.92;;;1.00;;
61915;SDS011;47868;51.326;6.550;2022-08-25T13:26:05;3.53;;;1.17;;
61915;SDS011;47868;51.326;6.550;2022-08-25T13:28:32;1.02;;;1.02;;
61915;SDS011;47868;51.326;6.550;2022-08-25T13:31:08;3.95;;;1.40;;
61915;SDS011;47868;51.326;6.550;2022-08-25T13:33:51;2.80;;;1.80;;
61915;SDS011;47868;51.326;6.550;2022-08-25T13:36:22;1.40;;;1.30;;
61915;SDS011;47868;51.326;6.550;2022-08-25T13:39:13;1.30;;;1.15;;
61915;SDS011;47868;51.326;6.550;2022-08-25T13:41:45;2.03;;;1.60;;
61915;SDS011;47868;51.326;6.550;2022-08-25T13:44:13;1.58;;;1.25;;
61915;SDS011;47868;51.326;6.550;2022-08-25T13:46:40;3.15;;;1.40;;
61915;SDS011;47868;51.326;6.550;2022-08-25T13:49:07;2.63;;;1.52;;
61915;SDS011;47868;51.326;6.550;2022-08-25T13:51:33;3.53;;;1.63;;
61915;SDS011;47868;51.326;6.550;2022-08-25T13:54:05;1.60;;;1.50;;
61915;SDS011;47868;51.326;6.550;2022-08-25T13:56:37;2.88;;;1.45;;
61915;SDS011;47868;51.326;6.550;2022-08-25T13:59:06;4.78;;;1.50;;
61915;SDS011;47868;51.326;6.550;2022-08-25T14:01:48;9.45;;;1.70;;
61915;SDS011;47868;51.326;6.550;2022-08-25T14:04:18;5.53;;;1.90;;
61915;SDS011;47868;51.326;6.550;2022-08-25T14:06:44;1.70;;;1.60;;
61915;SDS011;47868;51.326;6.550;2022-08-25T14:09:12;2.55;;;1.58;;
61915;SDS011;47868;51.326;6.550;2022-08-25T14:11:46;1.52;;;1.42;;
61915;SDS011;47868;51.326;6.550;2022-08-25T14:16:51;1.83;;;1.40;;
61915;SDS011;47868;51.326;6.550;2022-08-25T14:19:23;2.90;;;1.40;;
61915;SDS011;47868;51.326;6.550;2022-08-25T14:21:49;1.83;;;1.33;;
61915;SDS011;47868;51.326;6.550;2022-08-25T14:24:17;2.10;;;1.60;;
61915;SDS011;47868;51.326;6.550;2022-08-25T14:26:46;2.38;;;1.63;;
61915;SDS011;47868;51.326;6.550;2022-08-25T14:29:12;2.45;;;1.40;;
61915;SDS011;47868;51.326;6.550;2022-08-25T14:31:39;2.38;;;1.30;;
61915;SDS011;47868;51.326;6.550;2022-08-25T14:34:09;3.35;;;1.42;;
61915;SDS011;47868;51.326;6.550;2022-08-25T14:36:38;2.40;;;1.35;;
61915;SDS011;47868;51.326;6.550;2022-08-25T14:39:04;1.73;;;1.60;;
61915;SDS011;47868;51.326;6.550;2022-08-25T14:41:31;3.47;;;1.52;;
61915;SDS011;47868;51.326;6.550;2022-08-25T14:43:59;4.68;;;1.73;;
61915;SDS011;47868;51.326;6.550;2022-08-25T14:46:28;2.13;;;1.38;;
61915;SDS011;47868;51.326;6.550;2022-08-25T14:48:59;2.58;;;1.70;;
61915;SDS011;47868;51.326;6.550;2022-08-25T14:51:31;2.40;;;1.60;;
61915;SDS011;47868;51.326;6.550;2022-08-25T14:54:02;2.70;;;1.60;;
61915;SDS011;47868;51.326;6.550;2022-08-25T14:56:30;1.88;;;1.70;;
61915;SDS011;47868;51.326;6.550;2022-08-25T14:58:57;1.63;;;1.52;;
61915;SDS011;47868;51.326;6.550;2022-08-25T15:01:23;1.60;;;1.50;;
61915;SDS011;47868;51.326;6.550;2022-08-25T15:03:53;4.78;;;1.50;;
61915;SDS011;47868;51.326;6.550;2022-08-25T15:06:21;3.47;;;1.60;;
61915;SDS011;47868;51.326;6.550;2022-08-25T15:08:47;2.05;;;1.70;;
61915;SDS011;47868;51.326;6.550;2022-08-25T15:11:32;2.17;;;1.80;;
61915;SDS011;47868;51.326;6.550;2022-08-25T15:13:59;4.30;;;1.70;;
61915;SDS011;47868;51.326;6.550;2022-08-25T15:16:30;4.45;;;1.73;;
61915;SDS011;47868;51.326;6.550;2022-08-25T15:19:08;2.10;;;1.77;;
61915;SDS011;47868;51.326;6.550;2022-08-25T15:21:38;2.35;;;1.50;;
61915;SDS011;47868;51.326;6.550;2022-08-25T15:24:04;2.65;;;1.70;;
61915;SDS011;47868;51.326;6.550;2022-08-25T15:26:30;2.67;;;1.77;;
61915;SDS011;47868;51.326;6.550;2022-08-25T15:28:58;2.75;;;1.48;;
61915;SDS011;47868;51.326;6.550;2022-08-25T15:31:24;1.77;;;1.33;;
61915;SDS011;47868;51.326;6.550;2022-08-25T15:33:50;8.93;;;1.70;;
61915;SDS011;47868;51.326;6.550;2022-08-25T15:36:17;5.13;;;2.10;;
61915;SDS011;47868;51.326;6.550;2022-08-25T15:38:46;2.58;;;1.70;;
61915;SDS011;47868;51.326;6.550;2022-08-25T15:41:12;6.68;;;1.88;;
61915;SDS011;47868;51.326;6.550;2022-08-25T15:43:38;3.75;;;1.70;;
61915;SDS011;47868;51.326;6.550;2022-08-25T15:46:04;3.78;;;1.77;;
61915;SDS011;47868;51.326;6.550;2022-08-25T15:48:31;3.63;;;1.75;;
61915;SDS011;47868;51.326;6.550;2022-08-25T15:50:58;2.65;;;1.95;;
61915;SDS011;47868;51.326;6.550;2022-08-25T15:53:25;3.95;;;2.03;;
61915;SDS011;47868;51.326;6.550;2022-08-25T15:55:52;1.95;;;1.83;;
61915;SDS011;47868;51.326;6.550;2022-08-25T15:58:21;4.28;;;1.50;;
61915;SDS011;47868;51.326;6.550;2022-08-25T16:00:47;1.60;;;1.50;;
61915;SDS011;47868;51.326;6.550;2022-08-25T16:03:13;7.03;;;2.13;;
61915;SDS011;47868;51.326;6.550;2022-08-25T16:05:39;7.60;;;1.80;;
61915;SDS011;47868;51.326;6.550;2022-08-25T16:08:07;6.18;;;1.88;;
61915;SDS011;47868;51.326;6.550;2022-08-25T16:10:33;7.07;;;2.05;;
61915;SDS011;47868;51.326;6.550;2022-08-25T16:13:03;2.08;;;1.77;;
61915;SDS011;47868;51.326;6.550;2022-08-25T16:15:30;2.85;;;1.60;;
61915;SDS011;47868;51.326;6.550;2022-08-25T16:17:59;2.67;;;1.70;;
61915;SDS011;47868;51.326;6.550;2022-08-25T16:20:25;2.45;;;1.65;;
61915;SDS011;47868;51.326;6.550;2022-08-25T16:22:52;3.72;;;2.03;;
61915;SDS011;47868;51.326;6.550;2022-08-25T16:25:18;10.95;;;2.03;;
61915;SDS011;47868;51.326;6.550;2022-08-25T16:27:44;1.75;;;1.65;;
61915;SDS011;47868;51.326;6.550;2022-08-25T16:30:11;4.13;;;1.85;;
61915;SDS011;47868;51.326;6.550;2022-08-25T16:32:38;7.38;;;2.65;;
61915;SDS011;47868;51.326;6.550;2022-08-25T16:35:04;3.63;;;2.38;;
61915;SDS011;47868;51.326;6.550;2022-08-25T16:37:32;2.58;;;2.08;;
61915;SDS011;47868;51.326;6.550;2022-08-25T16:39:59;6.47;;;2.33;;
61915;SDS011;47868;51.326;6.550;2022-08-25T16:42:25;3.47;;;2.58;;
61915;SDS011;47868;51.326;6.550;2022-08-25T16:44:51;3.55;;;2.28;;
61915;SDS011;47868;51.326;6.550;2022-08-25T16:47:17;4.10;;;2.28;;
61915;SDS011;47868;51.326;6.550;2022-08-25T16:49:43;6.57;;;2.65;;
61915;SDS011;47868;51.326;6.550;2022-08-25T16:52:09;5.68;;;2.38;;
61915;SDS011;47868;51.326;6.550;2022-08-25T16:54:53;3.13;;;2.83;;
61915;SDS011;47868;51.326;6.550;2022-08-25T16:57:40;3.40;;;2.70;;
61915;SDS011;47868;51.326;6.550;2022-08-25T17:00:08;4.22;;;2.90;;
61915;SDS011;47868;51.326;6.550;2022-08-25T17:02:39;5.05;;;2.92;;
61915;SDS011;47868;51.326;6.550;2022-08-25T17:05:06;6.60;;;2.70;;
61915;SDS011;47868;51.326;6.550;2022-08-25T17:07:33;4.10;;;2.97;;
61915;SDS011;47868;51.326;6.550;2022-08-25T17:09:59;3.17;;;2.88;;
61915;SDS011;47868;51.326;6.550;2022-08-25T17:12:26;3.92;;;2.80;;
61915;SDS011;47868;51.326;6.550;2022-08-25T17:14:52;4.45;;;3.10;;
61915;SDS011;47868;51.326;6.550;2022-08-25T17:17:18;4.78;;;2.50;;
61915;SDS011;47868;51.326;6.550;2022-08-25T17:19:44;5.38;;;3.40;;
61915;SDS011;47868;51.326;6.550;2022-08-25T17:22:10;3.53;;;2.80;;
61915;SDS011;47868;51.326;6.550;2022-08-25T17:24:38;3.25;;;2.92;;